»·PEaware :: N690B KLGB-KLGB

N690B :: KLGB-KLGB

FLIGHT INFORMATION

Flight Status: Arrived
Operator: Privately registered:
United States
More flights under this callsign
Pilot: Kaloso N. (23070)
Aircraft: BEECH AIRCRAFT BARON
(BE58)
More flights by this aircraft type
Origin: KLGB Long Beach
United States
Destination: KLGB Long Beach
United States
More flights between these airports :: More routes between these airports
Route: +
File this flight plan on PilotEdge
Remarks:
Altitude:
(Current/Filed)
2,500ft
Speed:
(Current/Filed)
0kts
Departed: 24-May-19 04:50 PM
Arrived: 24-May-19 05:18 PM
Distance/Time
Traveled:
0nm/0:28
Distance/Time
To Go:
Arrived

Flight Plot

Page will automatically refresh every two minutes.


Map Options




Map Legend


Flown Route
Filed Route
Departure Airport
Arrival Airport
Navaid (VOR, NDB)
Fix

Horizontal Profiles

Position Reports

Time Latitude Longitude Heading Altitude Ground
Speed
24-May-19 16:40 33.812114 -118.150879 90 39ft 0kts
24-May-19 16:41 33.812114 -118.150879 90 39ft 0kts
24-May-19 16:42 33.812114 -118.150879 90 39ft 0kts
24-May-19 16:43 33.812114 -118.150879 90 39ft 0kts
24-May-19 16:44 33.812114 -118.150879 90 39ft 0kts
24-May-19 16:45 33.812114 -118.150879 90 39ft 0kts
24-May-19 16:46 33.812113 -118.150666 90 38ft 6kts
24-May-19 16:47 33.813084 -118.148895 82 37ft 0kts
24-May-19 16:48 33.813096 -118.148724 89 37ft 0kts
24-May-19 16:49 33.813216 -118.148116 23 36ft 0kts
24-May-19 16:50 33.813873 -118.150555 269 38ft 67kts
24-May-19 16:51 33.818146 -118.193556 281 1320ft 127kts
24-May-19 16:52 33.825592 -118.236703 281 2516ft 148kts
24-May-19 16:53 33.834721 -118.292148 267 2512ft 181kts
24-May-19 16:54 33.798135 -118.305169 158 3478ft 160kts
24-May-19 16:54 33.768505 -118.273538 132 3459ft 180kts
24-May-19 16:56 33.728818 -118.221259 132 3501ft 183kts
24-May-19 16:56 33.698751 -118.181704 132 2335ft 201kts
24-May-19 16:57 33.668964 -118.134904 86 2084ft 161kts
24-May-19 16:59 33.684631 -118.076796 70 2088ft 154kts
24-May-19 16:59 33.696321 -118.036450 70 2088ft 153kts
24-May-19 17:00 33.725486 -118.024675 298 2095ft 151kts
24-May-19 17:01 33.746877 -118.067826 316 1943ft 148kts
24-May-19 17:02 33.775814 -118.101291 315 1045ft 143kts
24-May-19 17:03 33.805580 -118.137917 311 1086ft 154kts
24-May-19 17:04 33.829851 -118.172099 313 2221ft 170kts
24-May-19 17:05 33.830444 -118.218611 197 2008ft 186kts
24-May-19 17:06 33.780097 -118.234197 194 2003ft 186kts
24-May-19 17:07 33.731513 -118.248806 194 2004ft 177kts
24-May-19 17:08 33.684240 -118.256790 145 2002ft 175kts
24-May-19 17:09 33.676206 -118.200814 91 2004ft 176kts
24-May-19 17:10 33.675372 -118.142253 90 2004ft 176kts
24-May-19 17:11 33.674545 -118.083327 90 2004ft 176kts
24-May-19 17:12 33.676215 -118.025476 56 1999ft 175kts
24-May-19 17:13 33.716213 -118.032816 321 1993ft 147kts
24-May-19 17:14 33.744602 -118.063276 313 1913ft 136kts
24-May-19 17:15 33.772884 -118.097311 311 1334ft 156kts
24-May-19 17:16 33.803681 -118.135325 298 245ft 151kts
24-May-19 17:17 33.818174 -118.151931 336 41ft 0kts
24-May-19 17:18 33.818487 -118.153465 237 44ft 0kts
24-May-19 17:19 33.818487 -118.153465 237 44ft 0kts
24-May-19 17:20 33.818485 -118.153468 237 44ft 0kts
24-May-19 17:21 33.817817 -118.153975 203 43ft 0kts
24-May-19 17:22 33.817817 -118.153975 203 43ft 0kts
24-May-19 17:23 33.817817 -118.153975 203 43ft 0kts
24-May-19 17:24 33.817817 -118.153975 203 43ft 0kts
24-May-19 17:25 33.817817 -118.153975 203 43ft 0kts
24-May-19 17:26 33.817817 -118.153975 203 43ft 0kts
24-May-19 17:27 33.817817 -118.153975 203 43ft 0kts
24-May-19 17:28 33.817817 -118.153975 203 43ft 0kts
24-May-19 17:29 33.817817 -118.153975 203 43ft 0kts
24-May-19 17:30 33.817817 -118.153975 203 43ft 0kts
24-May-19 17:31 33.817817 -118.153975 203 43ft 0kts

Navigation Log

Ident Type
Flight plan parsing failed, navigation log unavailable